createdAt,value
2022-11-04T00:00:33.415Z,99.90
2022-11-04T00:03:00.265Z,99.90
2022-11-04T00:05:27.197Z,99.90
2022-11-04T00:08:12.385Z,99.90
2022-11-04T00:11:11.376Z,99.90
2022-11-04T00:13:38.139Z,99.90
2022-11-04T00:16:23.968Z,99.90
2022-11-04T00:18:50.755Z,99.90
2022-11-04T00:21:35.913Z,99.90
2022-11-04T00:24:21.273Z,99.90
2022-11-04T00:27:06.738Z,99.90
2022-11-04T00:29:33.511Z,99.90
2022-11-04T00:32:18.889Z,99.90
2022-11-04T00:34:45.622Z,99.90
2022-11-04T00:37:12.347Z,99.90
2022-11-04T00:39:39.262Z,99.90
2022-11-04T00:42:06.432Z,99.90
2022-11-04T00:44:33.204Z,99.90
2022-11-04T00:47:02.715Z,99.90
2022-11-04T00:49:30.078Z,99.90
2022-11-04T00:51:59.563Z,99.90
2022-11-04T00:54:26.386Z,99.90
2022-11-04T00:56:54.061Z,99.90
2022-11-04T00:59:20.840Z,99.90
2022-11-04T01:01:47.792Z,99.90
2022-11-04T01:04:14.657Z,99.90
2022-11-04T01:06:41.431Z,99.90
2022-11-04T01:09:27.764Z,99.90
2022-11-04T01:11:54.430Z,99.90
2022-11-04T01:14:21.229Z,99.90
2022-11-04T01:16:50.080Z,99.90
2022-11-04T01:19:17.460Z,99.90
2022-11-04T01:21:44.242Z,99.90
2022-11-04T01:24:10.931Z,99.90
2022-11-04T01:26:37.884Z,99.90
2022-11-04T01:29:04.635Z,99.90
2022-11-04T01:31:32.112Z,99.90
2022-11-04T01:33:59.609Z,99.90
2022-11-04T01:36:27.626Z,99.90
2022-11-04T01:38:57.604Z,99.90
2022-11-04T01:41:31.189Z,99.90
2022-11-04T01:44:37.857Z,99.90
2022-11-04T01:47:04.990Z,99.90
2022-11-04T01:49:40.662Z,99.90
2022-11-04T01:52:15.639Z,99.90
2022-11-04T01:54:46.170Z,99.90
2022-11-04T01:57:23.496Z,99.90
2022-11-04T01:59:50.471Z,99.90
2022-11-04T02:02:17.206Z,99.90
2022-11-04T02:04:44.358Z,99.90
2022-11-04T02:07:11.822Z,99.90
2022-11-04T02:09:40.079Z,99.90
2022-11-04T02:12:25.462Z,99.90
2022-11-04T02:14:53.989Z,99.90
2022-11-04T02:17:20.593Z,99.90
2022-11-04T02:20:19.704Z,99.90
2022-11-04T02:23:20.054Z,99.90
2022-11-04T02:26:06.161Z,99.90
2022-11-04T02:29:04.720Z,99.90
2022-11-04T02:31:47.358Z,99.90
2022-11-04T02:34:24.855Z,99.90
2022-11-04T02:37:18.615Z,99.90
2022-11-04T02:40:01.692Z,99.90
2022-11-04T02:42:36.751Z,99.90
2022-11-04T02:45:40.637Z,99.90
2022-11-04T02:48:18.888Z,99.90
2022-11-04T02:51:00.009Z,99.90
2022-11-04T02:53:38.823Z,99.90
2022-11-04T02:56:06.857Z,99.90
2022-11-04T02:58:48.462Z,99.90
2022-11-04T03:01:18.696Z,99.90
2022-11-04T03:03:52.049Z,99.90
2022-11-04T03:06:22.986Z,99.90
2022-11-04T03:08:52.846Z,99.90
2022-11-04T03:11:23.331Z,99.90
2022-11-04T03:13:53.038Z,99.90
2022-11-04T03:16:35.788Z,99.90
2022-11-04T03:19:23.803Z,99.90
2022-11-04T03:22:09.446Z,99.90
2022-11-04T03:24:36.185Z,99.90
2022-11-04T03:27:41.650Z,99.90
2022-11-04T03:30:18.837Z,99.90
2022-11-04T03:33:06.027Z,99.90
2022-11-04T03:35:33.478Z,99.90
2022-11-04T03:38:00.270Z,99.90
2022-11-04T03:40:27.014Z,99.90
2022-11-04T03:43:00.760Z,99.90
2022-11-04T03:45:27.929Z,99.90
2022-11-04T03:47:56.701Z,99.90
2022-11-04T03:50:32.917Z,99.90
2022-11-04T03:53:00.172Z,99.90
2022-11-04T03:55:34.414Z,99.90
2022-11-04T03:58:09.866Z,99.90
2022-11-04T04:00:48.476Z,99.90
2022-11-04T04:03:27.821Z,99.90
2022-11-04T04:06:02.524Z,99.90
2022-11-04T04:08:43.660Z,99.90
2022-11-04T04:11:51.435Z,99.90
2022-11-04T04:14:39.520Z,99.90
2022-11-04T04:17:45.055Z,99.90
2022-11-04T04:20:20.939Z,99.90
2022-11-04T04:22:55.501Z,99.90
2022-11-04T04:25:45.001Z,99.90
2022-11-04T04:28:15.548Z,99.90
2022-11-04T04:30:43.686Z,99.90
2022-11-04T04:33:18.061Z,99.90
2022-11-04T04:35:52.672Z,99.90
2022-11-04T04:38:46.271Z,99.90
2022-11-04T04:41:35.305Z,99.90
2022-11-04T04:44:21.675Z,99.90
2022-11-04T04:46:52.033Z,99.90
2022-11-04T04:49:18.701Z,99.90
2022-11-04T04:51:47.635Z,99.90
2022-11-04T04:54:14.917Z,99.90
2022-11-04T04:56:41.590Z,99.90
2022-11-04T04:59:08.380Z,99.90
2022-11-04T05:01:35.290Z,99.90
2022-11-04T05:04:02.200Z,99.90
2022-11-04T05:06:28.838Z,99.90
2022-11-04T05:08:55.458Z,99.90
2022-11-04T05:11:26.220Z,99.90
2022-11-04T05:13:54.235Z,99.90
2022-11-04T05:16:20.892Z,99.90
2022-11-04T05:18:47.565Z,99.90
2022-11-04T05:21:15.759Z,99.90
2022-11-04T05:23:42.407Z,99.90
2022-11-04T05:26:09.184Z,99.90
2022-11-04T05:28:35.856Z,99.90
2022-11-04T05:31:05.152Z,99.90
2022-11-04T05:33:32.354Z,99.90
2022-11-04T05:36:08.554Z,99.90
2022-11-04T05:38:35.231Z,99.90
2022-11-04T05:41:01.895Z,99.90
2022-11-04T05:43:29.034Z,99.90
2022-11-04T05:45:58.031Z,99.90
2022-11-04T05:48:24.655Z,99.90
2022-11-04T05:50:51.309Z,99.90
2022-11-04T05:53:18.215Z,99.90
2022-11-04T05:55:44.939Z,99.90
2022-11-04T05:58:11.797Z,99.90
2022-11-04T06:00:38.627Z,99.90
2022-11-04T06:03:05.476Z,99.90
2022-11-04T06:05:32.458Z,99.90
2022-11-04T06:07:59.078Z,99.90
2022-11-04T06:10:26.243Z,99.90
2022-11-04T06:12:53.075Z,99.90
2022-11-04T06:15:19.777Z,99.90
2022-11-04T06:17:46.486Z,99.90
2022-11-04T06:20:13.241Z,99.90
2022-11-04T06:22:39.930Z,99.90
2022-11-04T06:25:06.820Z,99.90
2022-11-04T06:27:33.501Z,99.90
2022-11-04T06:30:00.197Z,99.90
2022-11-04T06:32:26.830Z,99.90
2022-11-04T06:34:53.465Z,99.90
2022-11-04T06:37:20.124Z,99.90
2022-11-04T06:39:46.818Z,99.90
2022-11-04T06:42:13.460Z,99.90
2022-11-04T06:44:40.129Z,99.90
2022-11-04T06:47:07.084Z,99.90
2022-11-04T06:49:33.730Z,99.90
2022-11-04T06:52:02.398Z,99.90
2022-11-04T06:54:29.180Z,99.90
2022-11-04T06:56:56.079Z,99.90
2022-11-04T06:59:24.000Z,99.90
2022-11-04T07:01:52.002Z,99.90
2022-11-04T07:04:18.781Z,99.90
2022-11-04T07:06:45.523Z,99.90
2022-11-04T07:09:14.747Z,99.90
2022-11-04T07:11:42.994Z,99.90
2022-11-04T07:14:10.284Z,99.90
2022-11-04T07:16:37.290Z,99.90
2022-11-04T07:19:04.783Z,99.90
2022-11-04T07:21:31.740Z,99.90
2022-11-04T07:23:58.570Z,99.90
2022-11-04T07:26:25.295Z,99.90
2022-11-04T07:28:52.285Z,99.90
2022-11-04T07:31:19.397Z,99.90
2022-11-04T07:33:51.085Z,99.90
2022-11-04T07:36:18.637Z,99.90
2022-11-04T07:38:45.517Z,99.90
2022-11-04T07:41:13.426Z,99.90
2022-11-04T07:43:40.314Z,99.90
2022-11-04T07:46:12.602Z,99.90
2022-11-04T07:48:39.628Z,99.90
2022-11-04T07:51:08.410Z,99.90
2022-11-04T07:53:35.199Z,99.90
2022-11-04T07:56:07.023Z,99.90
2022-11-04T07:58:34.387Z,99.90
2022-11-04T08:01:02.536Z,99.90
2022-11-04T08:03:29.447Z,99.90
2022-11-04T08:06:00.872Z,99.90
2022-11-04T08:08:28.698Z,99.90
2022-11-04T08:11:00.511Z,99.90
2022-11-04T08:13:29.193Z,99.90
2022-11-04T08:15:56.712Z,99.90
2022-11-04T08:18:23.740Z,99.90
2022-11-04T08:20:51.891Z,99.90
2022-11-04T08:23:19.554Z,99.90
2022-11-04T08:25:47.007Z,99.90
2022-11-04T08:28:17.702Z,99.90
2022-11-04T08:31:03.432Z,99.90
2022-11-04T08:33:32.448Z,99.90
2022-11-04T08:36:02.380Z,99.90
2022-11-04T08:38:29.219Z,99.90
2022-11-04T08:41:00.654Z,99.90
2022-11-04T08:43:27.723Z,99.90
2022-11-04T08:45:55.148Z,99.90
2022-11-04T08:48:21.958Z,99.90
2022-11-04T08:50:50.606Z,99.90
2022-11-04T08:53:18.010Z,99.90
2022-11-04T08:55:44.950Z,99.90
2022-11-04T08:58:12.635Z,99.90
2022-11-04T09:00:39.855Z,99.90
2022-11-04T09:03:07.729Z,99.90
2022-11-04T09:05:44.793Z,99.90
2022-11-04T09:08:16.991Z,99.90
2022-11-04T09:10:44.814Z,99.90
2022-11-04T09:13:12.840Z,99.90
2022-11-04T09:15:40.354Z,99.90
2022-11-04T09:18:07.568Z,99.90
2022-11-04T09:20:35.123Z,99.90
2022-11-04T09:23:01.892Z,99.90
2022-11-04T09:25:28.768Z,99.90
2022-11-04T09:27:55.557Z,99.90
2022-11-04T09:30:22.543Z,99.90
2022-11-04T09:32:52.699Z,99.90
2022-11-04T09:35:20.273Z,99.90
2022-11-04T09:37:47.280Z,99.90
2022-11-04T09:40:20.010Z,99.90
2022-11-04T09:42:52.832Z,99.90
2022-11-04T09:45:26.486Z,99.90
2022-11-04T09:47:58.421Z,99.90
2022-11-04T09:50:31.100Z,99.90
2022-11-04T09:53:14.226Z,99.90
2022-11-04T09:55:49.721Z,99.90
2022-11-04T09:58:16.748Z,99.90
2022-11-04T10:01:10.067Z,99.90
2022-11-04T10:04:08.880Z,99.90
2022-11-04T10:06:41.473Z,99.90
2022-11-04T10:09:11.109Z,99.90
2022-11-04T10:12:07.188Z,99.90
2022-11-04T10:14:36.605Z,99.90
2022-11-04T10:17:21.325Z,99.90
2022-11-04T10:20:09.806Z,99.90
2022-11-04T10:23:27.313Z,99.90
2022-11-04T10:25:58.346Z,99.90
2022-11-04T10:28:33.718Z,99.90
2022-11-04T10:31:00.868Z,99.90
2022-11-04T10:33:37.465Z,99.90
2022-11-04T10:36:08.147Z,99.90
2022-11-04T10:38:48.795Z,99.90
2022-11-04T10:41:23.945Z,99.90
2022-11-04T10:44:14.280Z,99.90
2022-11-04T10:46:59.537Z,99.90
2022-11-04T10:50:21.780Z,99.90
2022-11-04T10:52:40.173Z,99.90
2022-11-04T10:55:28.351Z,99.90
2022-11-04T10:57:59.433Z,99.90
2022-11-04T11:00:40.542Z,99.90
2022-11-04T11:03:31.030Z,99.90
2022-11-04T11:06:24.579Z,99.90
2022-11-04T11:08:54.135Z,99.90
2022-11-04T11:11:47.599Z,99.90
2022-11-04T11:14:17.791Z,99.90
2022-11-04T11:16:45.762Z,99.90
2022-11-04T11:19:12.700Z,99.90
2022-11-04T11:21:48.829Z,99.90
2022-11-04T11:24:23.297Z,99.90
2022-11-04T11:26:58.437Z,99.90
2022-11-04T11:29:26.973Z,99.90
2022-11-04T11:31:56.295Z,99.80
2022-11-04T11:34:27.802Z,99.90
2022-11-04T11:36:56.377Z,99.90
2022-11-04T11:39:29.973Z,99.90
2022-11-04T11:41:56.710Z,99.90
2022-11-04T11:44:31.853Z,99.60
2022-11-04T11:47:07.076Z,99.50
2022-11-04T11:49:36.699Z,99.50
2022-11-04T11:52:39.882Z,99.50
2022-11-04T11:55:24.272Z,99.30
2022-11-04T12:01:25.533Z,99.30
2022-11-04T12:09:41.687Z,99.90
2022-11-04T12:12:35.422Z,99.90
2022-11-04T12:15:27.290Z,99.90
2022-11-04T12:18:06.000Z,99.90
2022-11-04T12:20:48.840Z,99.90
2022-11-04T12:23:37.142Z,99.90
2022-11-04T12:26:33.015Z,99.90
2022-11-04T12:29:27.447Z,99.90
2022-11-04T12:32:12.284Z,99.90
2022-11-04T12:35:03.550Z,99.90
2022-11-04T12:37:44.338Z,99.80
2022-11-04T12:40:41.579Z,99.90
2022-11-04T12:43:11.471Z,99.70
2022-11-04T12:45:50.362Z,99.90
2022-11-04T12:48:42.585Z,99.90
2022-11-04T12:51:20.459Z,99.90
2022-11-04T12:54:18.968Z,99.80
2022-11-04T12:56:48.530Z,99.80
2022-11-04T12:59:36.871Z,99.80
2022-11-04T13:02:16.981Z,99.50
2022-11-04T13:05:03.631Z,99.30
2022-11-04T13:07:43.881Z,99.10
2022-11-04T13:10:26.341Z,99.00
2022-11-04T13:12:55.851Z,99.00
2022-11-04T13:15:28.921Z,99.30
2022-11-04T13:18:03.669Z,99.40
2022-11-04T13:20:45.570Z,99.60
2022-11-04T13:23:24.899Z,99.70
2022-11-04T13:25:52.351Z,99.90
2022-11-04T13:28:22.167Z,99.90
2022-11-04T13:31:23.078Z,99.90
2022-11-04T13:34:22.126Z,99.80
2022-11-04T13:37:12.539Z,99.90
2022-11-04T13:40:06.204Z,99.90
2022-11-04T13:42:51.637Z,99.90
2022-11-04T13:45:20.279Z,99.90
2022-11-04T13:47:56.426Z,99.90
2022-11-04T13:50:36.871Z,99.90
2022-11-04T13:53:06.519Z,99.90
2022-11-04T13:55:35.431Z,99.50
2022-11-04T13:58:04.994Z,99.20
2022-11-04T14:00:33.142Z,99.10
2022-11-04T14:03:20.720Z,99.30
2022-11-04T14:06:07.325Z,99.80
2022-11-04T14:08:34.676Z,99.60
2022-11-04T14:11:08.143Z,99.50
2022-11-04T14:13:42.521Z,99.90
2022-11-04T14:16:24.252Z,99.90
2022-11-04T14:18:52.904Z,99.90
2022-11-04T14:21:30.147Z,99.90
2022-11-04T14:24:00.304Z,99.90
2022-11-04T14:26:45.420Z,99.90
2022-11-04T14:29:24.621Z,99.90
2022-11-04T14:31:57.886Z,99.90
2022-11-04T14:34:29.858Z,99.90
2022-11-04T14:36:58.629Z,99.90
2022-11-04T14:39:31.231Z,99.90
2022-11-04T14:42:03.689Z,99.90
2022-11-04T14:44:30.428Z,99.90
2022-11-04T14:47:07.794Z,99.90
2022-11-04T14:49:45.336Z,99.90
2022-11-04T14:52:37.823Z,99.90
2022-11-04T14:55:31.145Z,99.90
2022-11-04T14:58:19.986Z,99.90
2022-11-04T15:00:49.830Z,99.90
2022-11-04T15:06:11.190Z,99.90
2022-11-04T15:08:42.869Z,99.90
2022-11-04T15:11:38.420Z,99.90
2022-11-04T15:14:13.439Z,99.90
2022-11-04T15:16:40.662Z,99.90
2022-11-04T15:19:10.478Z,99.90
2022-11-04T15:21:41.786Z,99.90
2022-11-04T15:24:17.212Z,99.90
2022-11-04T15:26:49.037Z,99.90
2022-11-04T15:29:17.616Z,99.90
2022-11-04T15:31:55.273Z,99.90
2022-11-04T15:34:23.754Z,99.90
2022-11-04T15:36:52.111Z,99.90
2022-11-04T15:39:28.792Z,99.90
2022-11-04T15:42:17.887Z,99.90
2022-11-04T15:44:54.144Z,99.90
2022-11-04T15:47:27.221Z,99.90
2022-11-04T15:50:05.842Z,99.90
2022-11-04T15:52:32.652Z,99.90
2022-11-04T15:55:01.017Z,99.90
2022-11-04T15:57:51.718Z,99.90
2022-11-04T16:00:24.480Z,99.90
2022-11-04T16:02:55.276Z,99.90
2022-11-04T16:05:28.131Z,99.90
2022-11-04T16:08:13.294Z,99.90
2022-11-04T16:10:40.320Z,99.90
2022-11-04T16:13:19.284Z,99.90
2022-11-04T16:15:46.020Z,99.90
2022-11-04T16:18:23.793Z,99.90
2022-11-04T16:20:53.201Z,99.90
2022-11-04T16:23:26.036Z,99.90
2022-11-04T16:26:06.422Z,99.90
2022-11-04T16:28:38.328Z,99.90
2022-11-04T16:31:25.577Z,99.90
2022-11-04T16:33:52.586Z,99.90
2022-11-04T16:36:28.547Z,99.90
2022-11-04T16:39:07.409Z,99.90
2022-11-04T16:41:39.044Z,99.90
2022-11-04T16:44:15.553Z,99.90
2022-11-04T16:46:42.441Z,99.90
2022-11-04T16:49:14.456Z,99.90
2022-11-04T16:51:41.576Z,99.90
2022-11-04T16:54:08.933Z,99.90
2022-11-04T16:56:35.829Z,99.90
2022-11-04T16:59:02.651Z,99.90
2022-11-04T17:01:29.499Z,99.90
2022-11-04T17:03:56.271Z,99.90
2022-11-04T17:06:23.438Z,99.90
2022-11-04T17:08:50.123Z,99.90
2022-11-04T17:11:16.922Z,99.90
2022-11-04T17:13:43.771Z,99.90
2022-11-04T17:16:13.806Z,99.90
2022-11-04T17:18:40.756Z,99.90
2022-11-04T17:21:09.661Z,99.90
2022-11-04T17:23:36.465Z,99.90
2022-11-04T17:26:04.146Z,99.90
2022-11-04T17:28:33.114Z,99.90
2022-11-04T17:31:01.475Z,99.90
2022-11-04T17:33:28.408Z,99.90
2022-11-04T17:35:55.620Z,99.90
2022-11-04T17:38:22.400Z,99.90
2022-11-04T17:41:07.801Z,99.90
2022-11-04T17:43:53.257Z,99.90
2022-11-04T17:46:35.462Z,99.90
2022-11-04T17:49:18.348Z,99.90
2022-11-04T17:51:51.047Z,99.90
2022-11-04T17:54:17.780Z,99.90
2022-11-04T17:56:44.513Z,99.90
2022-11-04T17:59:13.304Z,99.90
2022-11-04T18:01:41.403Z,99.90
2022-11-04T18:04:12.036Z,99.90
2022-11-04T18:06:39.792Z,99.90
2022-11-04T18:09:07.225Z,99.90
2022-11-04T18:11:52.681Z,99.90
2022-11-04T18:14:19.486Z,99.90
2022-11-04T18:16:48.898Z,99.90
2022-11-04T18:19:18.058Z,99.90
2022-11-04T18:21:45.404Z,99.90
2022-11-04T18:24:13.051Z,99.90
2022-11-04T18:26:40.716Z,99.90
2022-11-04T18:29:07.524Z,99.90
2022-11-04T18:31:37.426Z,99.90
2022-11-04T18:34:08.207Z,99.90
2022-11-04T18:36:36.032Z,99.90
2022-11-04T18:39:03.132Z,99.90
2022-11-04T18:41:29.978Z,99.90
2022-11-04T18:43:57.288Z,99.90
2022-11-04T18:46:24.190Z,99.90
2022-11-04T18:48:51.317Z,99.90
2022-11-04T18:51:22.120Z,99.90
2022-11-04T18:53:50.122Z,99.90
2022-11-04T18:56:20.186Z,99.90
2022-11-04T18:58:47.374Z,99.90
2022-11-04T19:01:24.024Z,99.90
2022-11-04T19:03:51.955Z,99.90
2022-11-04T19:06:27.743Z,99.90
2022-11-04T19:09:05.015Z,99.90
2022-11-04T19:11:43.160Z,99.90
2022-11-04T19:14:14.259Z,99.90
2022-11-04T19:16:42.527Z,99.90
2022-11-04T19:19:13.066Z,99.90
2022-11-04T19:21:39.937Z,99.90
2022-11-04T19:24:08.194Z,99.90
2022-11-04T19:26:35.747Z,99.90
2022-11-04T19:29:06.305Z,99.90
2022-11-04T19:31:33.717Z,99.90
2022-11-04T19:34:05.041Z,99.90
2022-11-04T19:36:33.220Z,99.90
2022-11-04T19:39:00.577Z,99.90
2022-11-04T19:41:46.784Z,99.90
2022-11-04T19:44:16.659Z,99.90
2022-11-04T19:46:43.750Z,99.90
2022-11-04T19:49:12.667Z,99.90
2022-11-04T19:51:39.937Z,99.90
2022-11-04T19:54:07.545Z,99.90
2022-11-04T19:56:36.526Z,99.90
2022-11-04T19:59:08.513Z,99.90
2022-11-04T20:01:36.373Z,99.90
2022-11-04T20:04:04.466Z,99.90
2022-11-04T20:06:33.567Z,99.90
2022-11-04T20:09:08.319Z,99.90
2022-11-04T20:11:56.589Z,99.90
2022-11-04T20:14:24.501Z,99.90
2022-11-04T20:16:51.364Z,99.90
2022-11-04T20:19:22.415Z,99.90
2022-11-04T20:21:50.604Z,99.90
2022-11-04T20:24:17.841Z,99.90
2022-11-04T20:26:46.724Z,99.90
2022-11-04T20:29:16.080Z,99.90
2022-11-04T20:31:43.934Z,99.90
2022-11-04T20:34:12.498Z,99.90
2022-11-04T20:36:40.348Z,99.90
2022-11-04T20:39:16.641Z,99.90
2022-11-04T20:41:44.161Z,99.90
2022-11-04T20:44:12.358Z,99.90
2022-11-04T20:46:40.281Z,99.90
2022-11-04T20:49:07.638Z,99.90
2022-11-04T20:51:38.743Z,99.90
2022-11-04T20:54:07.120Z,99.90
2022-11-04T20:56:38.782Z,99.90
2022-11-04T20:59:06.153Z,99.90
2022-11-04T21:01:35.355Z,99.90
2022-11-04T21:04:03.586Z,99.90
2022-11-04T21:06:30.885Z,99.90
2022-11-04T21:08:59.078Z,99.90
2022-11-04T21:11:31.710Z,99.90
2022-11-04T21:13:59.308Z,99.90
2022-11-04T21:16:26.478Z,99.90
2022-11-04T21:18:54.121Z,99.90
2022-11-04T21:21:21.199Z,99.90
2022-11-04T21:23:48.678Z,99.90
2022-11-04T21:26:24.755Z,99.90
2022-11-04T21:29:01.443Z,99.90
2022-11-04T21:31:29.391Z,99.90
2022-11-04T21:33:56.247Z,99.90
2022-11-04T21:36:26.787Z,99.90
2022-11-04T21:38:53.909Z,99.90
2022-11-04T21:41:25.111Z,99.90
2022-11-04T21:44:12.487Z,99.90
2022-11-04T21:46:39.225Z,99.90
2022-11-04T21:49:06.646Z,99.90
2022-11-04T21:51:34.549Z,99.90
2022-11-04T21:54:04.670Z,99.90
2022-11-04T21:56:34.222Z,99.90
2022-11-04T21:59:01.506Z,99.90
2022-11-04T22:01:30.401Z,99.90
2022-11-04T22:04:00.456Z,99.90
2022-11-04T22:06:34.131Z,99.90
2022-11-04T22:09:02.297Z,99.90
2022-11-04T22:11:31.804Z,99.90
2022-11-04T22:14:00.930Z,99.90
2022-11-04T22:16:31.073Z,99.90
2022-11-04T22:18:59.897Z,99.90
2022-11-04T22:21:28.808Z,99.90
2022-11-04T22:23:56.901Z,99.90
2022-11-04T22:26:25.913Z,99.90
2022-11-04T22:28:54.338Z,99.90
2022-11-04T22:31:22.878Z,99.90
2022-11-04T22:33:50.474Z,99.90
2022-11-04T22:36:17.969Z,99.90
2022-11-04T22:38:44.826Z,99.90
2022-11-04T22:41:14.147Z,99.90
2022-11-04T22:43:41.272Z,99.90
2022-11-04T22:46:15.490Z,99.90
2022-11-04T22:48:42.413Z,99.90
2022-11-04T22:51:09.975Z,99.90
2022-11-04T22:53:39.556Z,99.90
2022-11-04T22:56:08.767Z,99.90
2022-11-04T22:58:36.115Z,99.90
2022-11-04T23:01:08.629Z,99.90
2022-11-04T23:03:35.933Z,99.90
2022-11-04T23:06:04.964Z,99.90
2022-11-04T23:08:33.865Z,99.90
2022-11-04T23:11:26.281Z,99.90
2022-11-04T23:14:20.440Z,99.90
2022-11-04T23:17:08.511Z,99.90
2022-11-04T23:19:35.941Z,99.90
2022-11-04T23:22:21.274Z,99.90
2022-11-04T23:25:06.316Z,99.90
2022-11-04T23:27:53.289Z,99.90
2022-11-04T23:30:26.552Z,99.90
2022-11-04T23:33:01.846Z,99.90
2022-11-04T23:35:54.978Z,99.90
2022-11-04T23:38:22.840Z,99.90
2022-11-04T23:41:12.717Z,99.90
2022-11-04T23:43:39.552Z,99.90
2022-11-04T23:46:24.681Z,99.90
2022-11-04T23:49:10.331Z,99.90
2022-11-04T23:51:55.690Z,99.90
2022-11-04T23:54:41.124Z,99.90
2022-11-04T23:57:34.943Z,99.90
